createdAt,value
2024-01-16T00:03:13.168Z,-0.70
2024-01-16T00:08:16.396Z,-0.70
2024-01-16T00:13:20.983Z,-0.70
2024-01-16T00:18:24.464Z,-0.80
2024-01-16T00:23:27.679Z,-0.80
2024-01-16T00:28:34.112Z,-0.80
2024-01-16T00:33:37.704Z,-0.80
2024-01-16T00:38:40.970Z,-0.80
2024-01-16T00:43:45.896Z,-0.70
2024-01-16T00:48:49.236Z,-0.90
2024-01-16T00:53:52.613Z,-0.90
2024-01-16T00:58:57.129Z,-1.10
2024-01-16T01:04:00.339Z,-1.00
2024-01-16T01:09:04.230Z,-1.00
2024-01-16T01:14:08.850Z,-1.00
2024-01-16T01:19:12.196Z,-0.90
2024-01-16T01:24:15.439Z,-0.80
2024-01-16T01:29:19.898Z,-0.80
2024-01-16T01:34:23.120Z,-0.80
2024-01-16T01:39:26.338Z,-0.80
2024-01-16T01:44:30.846Z,-0.90
2024-01-16T01:49:34.548Z,-0.90
2024-01-16T01:54:39.395Z,-0.90
2024-01-16T01:59:44.290Z,-0.90
2024-01-16T02:04:48.355Z,-1.00
2024-01-16T02:09:52.324Z,-1.00
2024-01-16T02:14:56.796Z,-1.00
2024-01-16T02:19:59.904Z,-1.00
2024-01-16T02:25:04.761Z,-1.00
2024-01-16T02:30:09.462Z,-1.00
2024-01-16T02:35:12.667Z,-1.00
2024-01-16T02:40:17.361Z,-1.00
2024-01-16T02:45:20.516Z,-1.00
2024-01-16T02:50:24.194Z,-0.90
2024-01-16T02:55:28.695Z,-1.00
2024-01-16T03:00:31.875Z,-1.00
2024-01-16T03:05:35.112Z,-1.10
2024-01-16T03:10:39.701Z,-1.20
2024-01-16T03:15:43.139Z,-1.40
2024-01-16T03:20:46.304Z,-1.50
2024-01-16T03:25:50.807Z,-1.40
2024-01-16T03:30:55.455Z,-1.50
2024-01-16T03:35:58.763Z,-1.50
2024-01-16T03:41:04.712Z,-1.40
2024-01-16T03:46:08.813Z,-1.40
2024-01-16T03:51:12.099Z,-1.50
2024-01-16T03:56:17.439Z,-1.70
2024-01-16T04:01:20.651Z,-1.80
2024-01-16T04:06:23.864Z,-2.00
2024-01-16T04:11:28.392Z,-2.10
2024-01-16T04:16:31.528Z,-2.20
2024-01-16T04:21:34.641Z,-2.20
2024-01-16T04:26:39.918Z,-2.30
2024-01-16T04:31:43.796Z,-2.50
2024-01-16T04:36:46.915Z,-2.50
2024-01-16T04:41:51.467Z,-2.70
2024-01-16T04:46:54.867Z,-2.70
2024-01-16T04:51:58.013Z,-2.80
2024-01-16T04:57:02.482Z,-2.70
2024-01-16T05:02:05.932Z,-2.70
2024-01-16T05:07:09.090Z,-2.70
2024-01-16T05:12:13.701Z,-2.70
2024-01-16T05:17:16.838Z,-2.70
2024-01-16T05:22:19.953Z,-2.70
2024-01-16T05:27:24.428Z,-2.80
2024-01-16T05:32:27.612Z,-2.80
2024-01-16T05:37:30.902Z,-2.90
2024-01-16T05:42:35.374Z,-3.00
2024-01-16T05:47:38.592Z,-3.10
2024-01-16T05:52:44.925Z,-3.20
2024-01-16T05:57:50.660Z,-3.30
2024-01-16T06:02:53.878Z,-3.40
2024-01-16T06:07:57.938Z,-3.50
2024-01-16T06:13:02.423Z,-3.60
2024-01-16T06:18:06.321Z,-3.60
2024-01-16T06:23:09.588Z,-3.60
2024-01-16T06:28:14.233Z,-3.60
2024-01-16T06:33:17.588Z,-3.50
2024-01-16T06:38:20.853Z,-3.50
2024-01-16T06:43:25.816Z,-3.50
2024-01-16T06:48:29.118Z,-3.50
2024-01-16T06:53:32.413Z,-3.40
2024-01-16T06:58:37.377Z,-3.50
2024-01-16T07:03:40.524Z,-3.40
2024-01-16T07:08:43.766Z,-3.30
2024-01-16T07:13:48.304Z,-3.30
2024-01-16T07:18:51.543Z,-3.40
2024-01-16T07:23:54.733Z,-3.40
2024-01-16T07:28:59.571Z,-3.40
2024-01-16T07:34:02.749Z,-3.40
2024-01-16T07:39:06.020Z,-3.30
2024-01-16T07:44:10.548Z,-3.30
2024-01-16T07:49:13.715Z,-3.20
2024-01-16T07:54:16.853Z,-3.10
2024-01-16T07:59:21.389Z,-3.20
2024-01-16T08:04:24.537Z,-3.20
2024-01-16T08:09:27.741Z,-3.10
2024-01-16T08:14:32.394Z,-3.20
2024-01-16T08:19:35.685Z,-3.00
2024-01-16T08:24:39.824Z,-2.80
2024-01-16T08:29:44.342Z,-2.70
2024-01-16T08:34:48.462Z,-2.70
2024-01-16T08:39:51.807Z,-2.40
2024-01-16T08:44:56.320Z,-2.10
2024-01-16T08:49:59.619Z,-2.10
2024-01-16T08:55:02.781Z,-1.80
2024-01-16T09:00:10.025Z,-1.60
2024-01-16T09:05:14.568Z,-1.50
2024-01-16T09:10:18.257Z,-1.40
2024-01-16T09:15:22.759Z,-1.40
2024-01-16T09:20:25.981Z,-1.10
2024-01-16T09:25:32.216Z,-1.10
2024-01-16T09:30:36.652Z,-1.00
2024-01-16T09:35:40.124Z,-0.90
2024-01-16T09:40:43.262Z,-0.80
2024-01-16T09:45:49.686Z,-0.80
2024-01-16T09:50:52.938Z,-0.60
2024-01-16T09:56:02.349Z,-0.50
2024-01-16T10:01:08.159Z,-0.40
2024-01-16T10:06:12.717Z,-0.40
2024-01-16T10:11:15.922Z,-0.40
2024-01-16T10:16:23.577Z,-0.20
2024-01-16T10:21:32.772Z,-0.20
2024-01-16T10:26:35.891Z,-0.10
2024-01-16T10:31:41.620Z,0.00
2024-01-16T10:36:45.023Z,0.10
2024-01-16T10:41:57.442Z,0.10
2024-01-16T10:47:17.372Z,0.30
2024-01-16T10:52:21.765Z,0.30
2024-01-16T10:57:26.983Z,0.50
2024-01-16T11:02:39.980Z,0.40
2024-01-16T11:07:44.943Z,0.60
2024-01-16T11:12:49.076Z,0.80
2024-01-16T11:17:54.034Z,0.90
2024-01-16T11:23:00.718Z,1.10
2024-01-16T11:28:11.981Z,1.20
2024-01-16T11:33:47.472Z,1.50
2024-01-16T11:38:58.810Z,1.70
2024-01-16T11:44:01.994Z,1.60
2024-01-16T11:49:07.073Z,1.50
2024-01-16T11:54:10.578Z,1.60
2024-01-16T12:00:13.884Z,1.80
2024-01-16T12:05:18.669Z,2.00
2024-01-16T12:10:24.444Z,2.00
2024-01-16T12:15:28.622Z,1.90
2024-01-16T12:20:35.266Z,1.70
2024-01-16T12:26:01.203Z,1.70
2024-01-16T12:31:04.199Z,1.80
2024-01-16T12:36:11.895Z,1.90
2024-01-16T12:41:15.659Z,1.90
2024-01-16T12:46:20.823Z,1.90
2024-01-16T12:51:25.309Z,1.90
2024-01-16T12:56:37.760Z,1.80
2024-01-16T13:01:44.294Z,1.80
2024-01-16T13:06:50.001Z,1.90
2024-01-16T13:11:56.693Z,1.70
2024-01-16T13:17:02.499Z,1.70
2024-01-16T13:22:08.035Z,1.90
2024-01-16T13:27:14.156Z,2.10
2024-01-16T13:32:17.374Z,2.20
2024-01-16T13:37:24.277Z,2.60
2024-01-16T13:42:27.377Z,2.30
2024-01-16T13:47:30.939Z,2.20
2024-01-16T13:52:36.553Z,2.00
2024-01-16T13:57:39.994Z,2.00
2024-01-16T14:02:43.830Z,2.10
2024-01-16T14:07:52.107Z,2.20
2024-01-16T14:12:55.276Z,2.20
2024-01-16T14:17:59.434Z,2.20
2024-01-16T14:23:04.978Z,2.50
2024-01-16T14:28:14.992Z,2.30
2024-01-16T14:33:21.708Z,2.20
2024-01-16T14:38:26.273Z,1.90
2024-01-16T14:43:29.469Z,1.90
2024-01-16T14:48:32.701Z,1.80
2024-01-16T14:53:37.226Z,2.00
2024-01-16T14:58:40.578Z,1.80
2024-01-16T15:03:43.777Z,1.50
2024-01-16T15:08:49.452Z,1.40
2024-01-16T15:13:52.723Z,1.20
2024-01-16T15:18:56.640Z,1.20
2024-01-16T15:24:01.288Z,1.00
2024-01-16T15:29:04.544Z,0.80
2024-01-16T15:34:08.006Z,0.60
2024-01-16T15:39:12.542Z,0.30
2024-01-16T15:44:15.759Z,0.10
2024-01-16T15:49:18.958Z,-0.10
2024-01-16T15:54:24.621Z,-0.40
2024-01-16T15:59:27.912Z,-0.50
2024-01-16T16:04:31.029Z,-0.60
2024-01-16T16:09:36.922Z,-0.80
2024-01-16T16:14:41.435Z,-0.90
2024-01-16T16:19:46.758Z,-0.80
2024-01-16T16:24:51.263Z,-0.70
2024-01-16T16:29:58.001Z,-0.70
2024-01-16T16:35:01.282Z,-0.90
2024-01-16T16:40:07.131Z,-1.00
2024-01-16T16:45:12.700Z,-1.20
2024-01-16T16:50:15.950Z,-1.40
2024-01-16T16:55:20.635Z,-1.50
2024-01-16T17:00:23.735Z,-1.70
2024-01-16T17:05:27.083Z,-1.90
2024-01-16T17:10:31.985Z,-2.10
2024-01-16T17:15:35.076Z,-2.30
2024-01-16T17:20:38.290Z,-2.40
2024-01-16T17:25:43.145Z,-2.50
2024-01-16T17:30:47.339Z,-2.60
2024-01-16T17:35:50.942Z,-2.60
2024-01-16T17:40:55.534Z,-2.70
2024-01-16T17:45:59.126Z,-2.70
2024-01-16T17:51:02.429Z,-2.80
2024-01-16T17:56:10.229Z,-3.00
2024-01-16T18:01:13.532Z,-3.00
2024-01-16T18:06:18.542Z,-3.00
2024-01-16T18:11:24.392Z,-3.10
2024-01-16T18:16:27.698Z,-3.10
2024-01-16T18:21:30.867Z,-3.10
2024-01-16T18:26:37.383Z,-3.10
2024-01-16T18:31:40.658Z,-3.30
2024-01-16T18:36:49.759Z,-3.40
2024-01-16T18:41:54.685Z,-3.40
2024-01-16T18:46:57.897Z,-3.50
2024-01-16T18:52:04.454Z,-3.50
2024-01-16T18:57:10.447Z,-3.60
2024-01-16T19:02:18.103Z,-3.70
2024-01-16T19:07:24.773Z,-3.80
2024-01-16T19:12:29.336Z,-3.90
2024-01-16T19:17:32.684Z,-3.90
2024-01-16T19:22:35.883Z,-4.00
2024-01-16T19:27:41.963Z,-3.90
2024-01-16T19:32:46.414Z,-4.00
2024-01-16T19:37:49.582Z,-4.00
2024-01-16T19:42:55.619Z,-4.00
2024-01-16T19:47:58.978Z,-4.00
2024-01-16T19:53:04.014Z,-4.00
2024-01-16T19:58:10.157Z,-4.10
2024-01-16T20:03:14.170Z,-4.10
2024-01-16T20:08:17.454Z,-4.20
2024-01-16T20:13:21.900Z,-4.30
2024-01-16T20:18:25.181Z,-4.30
2024-01-16T20:23:29.492Z,-4.50
2024-01-16T20:28:34.300Z,-4.50
2024-01-16T20:33:37.631Z,-4.70
2024-01-16T20:38:41.554Z,-4.70
2024-01-16T20:43:46.096Z,-4.70
2024-01-16T20:48:49.801Z,-4.70
2024-01-16T20:53:53.128Z,-4.80
2024-01-16T20:58:57.614Z,-4.80
2024-01-16T21:04:00.747Z,-4.80
2024-01-16T21:09:04.707Z,-4.80
2024-01-16T21:14:09.205Z,-4.80
2024-01-16T21:19:17.462Z,-4.90
2024-01-16T21:24:21.243Z,-4.90
2024-01-16T21:29:26.330Z,-5.00
2024-01-16T21:34:29.523Z,-4.90
2024-01-16T21:39:33.826Z,-5.00
2024-01-16T21:44:38.308Z,-5.10
2024-01-16T21:49:42.257Z,-5.00
2024-01-16T21:54:45.425Z,-4.90
2024-01-16T21:59:49.946Z,-5.00
2024-01-16T22:04:54.389Z,-5.00
2024-01-16T22:09:57.593Z,-5.00
2024-01-16T22:15:02.443Z,-5.10
2024-01-16T22:20:07.537Z,-5.10
2024-01-16T22:25:11.493Z,-5.10
2024-01-16T22:30:17.251Z,-5.10
2024-01-16T22:35:20.593Z,-5.10
2024-01-16T22:40:24.305Z,-5.20
2024-01-16T22:45:28.818Z,-5.30
2024-01-16T22:50:31.997Z,-5.30
2024-01-16T22:55:35.476Z,-5.30
2024-01-16T23:00:40.936Z,-5.30
2024-01-16T23:05:45.300Z,-5.30
2024-01-16T23:10:48.691Z,-5.20
2024-01-16T23:15:53.971Z,-5.30
2024-01-16T23:20:57.190Z,-5.20
2024-01-16T23:26:00.695Z,-5.20
2024-01-16T23:31:06.408Z,-5.20
2024-01-16T23:36:10.565Z,-5.30
2024-01-16T23:41:13.717Z,-5.30
2024-01-16T23:46:18.255Z,-5.10
2024-01-16T23:51:21.398Z,-5.20
2024-01-16T23:56:24.605Z,-5.20
